Time;durP1;ratioP1;P1;durP2;ratioP2;P2;SDS_P1;SDS_P2;PMS_P1;PMS_P2;Temp;Humidity;BMP_temperature;BMP_pressure;BME280_temperature;BME280_humidity;BME280_pressure;Samples;Min_cycle;Max_cycle;Signal;HPM_P1;HPM_P2
2022/03/27 00:02:18;;;;;;;7.20;4.57;;;;;;;;;;4829259;29;20438;-77
2022/03/27 00:04:44;;;;;;;13.05;4.78;;;;;;;;;;4828327;29;20057;-79
2022/03/27 00:07:10;;;;;;;9.80;4.60;;;;;;;;;;4844339;29;20045;-77
2022/03/27 00:09:36;;;;;;;9.20;4.20;;;;;;;;;;4829228;29;20095;-77
2022/03/27 00:12:03;;;;;;;9.20;4.65;;;;;;;;;;4828238;29;20049;-77
2022/03/27 00:14:29;;;;;;;6.72;4.72;;;;;;;;;;4829284;29;20197;-79
2022/03/27 00:16:55;;;;;;;13.35;4.78;;;;;;;;;;4842912;29;20057;-80
2022/03/27 00:19:21;;;;;;;16.10;6.18;;;;;;;;;;4842682;29;20057;-78
2022/03/27 00:21:48;;;;;;;14.57;6.50;;;;;;;;;;4827789;29;20049;-78
2022/03/27 00:24:14;;;;;;;11.57;5.88;;;;;;;;;;4842843;29;20064;-78
2022/03/27 00:26:43;;;;;;;14.77;5.43;;;;;;;;;;4827605;29;20451;-78
2022/03/27 00:29:10;;;;;;;13.55;6.25;;;;;;;;;;4842199;29;20053;-78
2022/03/27 00:31:38;;;;;;;13.13;5.88;;;;;;;;;;4827965;29;20382;-77
2022/03/27 00:34:04;;;;;;;13.82;6.25;;;;;;;;;;4827523;29;20053;-78
2022/03/27 00:36:30;;;;;;;9.15;6.05;;;;;;;;;;4827125;29;20053;-78
2022/03/27 00:38:56;;;;;;;16.02;7.18;;;;;;;;;;4842179;29;20056;-79
2022/03/27 00:41:24;;;;;;;18.23;6.68;;;;;;;;;;4827324;29;20490;-78
2022/03/27 00:43:50;;;;;;;15.38;6.97;;;;;;;;;;4842181;29;20049;-79
2022/03/27 00:46:16;;;;;;;14.40;6.68;;;;;;;;;;4828241;29;20413;-77
2022/03/27 00:48:43;;;;;;;19.05;6.53;;;;;;;;;;4827271;29;20056;-77
2022/03/27 00:51:09;;;;;;;17.50;6.90;;;;;;;;;;4842021;29;20383;-77
2022/03/27 00:53:35;;;;;;;17.20;6.40;;;;;;;;;;4827474;29;20116;-77
2022/03/27 00:56:02;;;;;;;17.20;6.40;;;;;;;;;;4827211;29;20056;-77
2022/03/27 00:58:28;;;;;;;13.07;6.07;;;;;;;;;;4827137;29;20049;-77
2022/03/27 01:01:13;;;;;;;12.20;6.38;;;;;;;;;;4842275;29;20045;-77
2022/03/27 01:03:39;;;;;;;20.10;5.72;;;;;;;;;;4827048;29;20665;-77
2022/03/27 01:06:17;;;;;;;15.85;6.22;;;;;;;;;;4827573;29;20117;-80
2022/03/27 01:11:28;;;;;;;14.13;6.68;;;;;;;;;;4828871;29;20125;-76
2022/03/27 01:13:55;;;;;;;16.23;5.95;;;;;;;;;;4826857;29;20482;-77
2022/03/27 01:16:31;;;;;;;16.15;6.00;;;;;;;;;;4827434;29;20045;-77
2022/03/27 01:18:58;;;;;;;18.60;6.65;;;;;;;;;;4841668;29;20104;-78
2022/03/27 01:21:24;;;;;;;16.55;6.65;;;;;;;;;;4826958;29;20510;-77
2022/03/27 01:23:50;;;;;;;16.58;6.15;;;;;;;;;;4842173;29;20064;-79
2022/03/27 01:26:18;;;;;;;17.55;6.20;;;;;;;;;;4827259;29;20061;-78
2022/03/27 01:28:44;;;;;;;16.42;6.85;;;;;;;;;;4843255;29;20144;-77
2022/03/27 01:31:10;;;;;;;19.55;6.93;;;;;;;;;;4841667;29;20084;-77
2022/03/27 01:33:36;;;;;;;15.02;7.05;;;;;;;;;;4841992;29;20053;-77
2022/03/27 01:36:02;;;;;;;19.10;7.38;;;;;;;;;;4826379;29;20117;-77
2022/03/27 01:38:28;;;;;;;13.60;7.20;;;;;;;;;;4826499;29;20072;-77
2022/03/27 01:40:54;;;;;;;12.05;6.88;;;;;;;;;;4836401;29;20062;-80
2022/03/27 01:43:20;;;;;;;13.88;6.63;;;;;;;;;;4824604;29;20061;-77
2022/03/27 01:45:46;;;;;;;14.35;6.60;;;;;;;;;;4808691;29;20062;-77
2022/03/27 01:48:12;;;;;;;18.92;7.82;;;;;;;;;;4823978;29;20601;-77
2022/03/27 01:50:38;;;;;;;16.55;7.45;;;;;;;;;;4809080;29;20136;-77
2022/03/27 01:53:05;;;;;;;22.13;9.18;;;;;;;;;;4808382;29;20537;-77
2022/03/27 01:55:31;;;;;;;19.55;8.70;;;;;;;;;;4808480;29;20050;-78
2022/03/27 01:57:57;;;;;;;16.15;9.10;;;;;;;;;;4805546;29;20618;-81
2022/03/27 02:00:23;;;;;;;16.60;8.82;;;;;;;;;;4809581;29;20062;-77
2022/03/27 02:02:49;;;;;;;17.27;9.55;;;;;;;;;;4808986;29;20091;-77
2022/03/27 02:05:15;;;;;;;21.35;9.70;;;;;;;;;;4808924;29;20607;-77
2022/03/27 02:07:45;;;;;;;24.52;9.35;;;;;;;;;;4808628;29;20394;-77
2022/03/27 02:10:11;;;;;;;16.98;9.05;;;;;;;;;;4823722;29;20054;-78
2022/03/27 02:12:37;;;;;;;17.38;9.45;;;;;;;;;;4823678;29;20072;-77
2022/03/27 02:15:07;;;;;;;19.80;10.18;;;;;;;;;;4823250;29;20050;-77
2022/03/27 02:17:38;;;;;;;23.30;10.00;;;;;;;;;;4823467;29;20050;-77
2022/03/27 02:20:05;;;;;;;21.77;8.90;;;;;;;;;;4823191;29;20137;-77
2022/03/27 02:22:31;;;;;;;21.33;10.55;;;;;;;;;;4808216;29;20612;-80
2022/03/27 02:24:57;;;;;;;20.52;10.15;;;;;;;;;;4808210;29;20061;-81
2022/03/27 02:27:23;;;;;;;16.90;8.95;;;;;;;;;;4808082;29;20058;-77
2022/03/27 02:29:49;;;;;;;23.08;9.57;;;;;;;;;;4809606;29;20089;-76
2022/03/27 02:32:15;;;;;;;16.85;8.73;;;;;;;;;;4808818;29;20058;-78
2022/03/27 02:34:41;;;;;;;15.93;8.90;;;;;;;;;;4824197;29;20109;-77
2022/03/27 02:37:08;;;;;;;14.13;9.02;;;;;;;;;;4823182;29;20047;-77
2022/03/27 02:39:34;;;;;;;19.15;8.63;;;;;;;;;;4808076;29;20046;-77
2022/03/27 02:42:00;;;;;;;22.85;8.90;;;;;;;;;;4824767;29;20058;-77
2022/03/27 02:44:26;;;;;;;21.08;8.38;;;;;;;;;;4808153;29;20058;-78
2022/03/27 02:46:52;;;;;;;19.45;8.57;;;;;;;;;;4808664;29;20102;-79
2022/03/27 02:49:18;;;;;;;20.58;7.88;;;;;;;;;;4808900;29;20136;-78
2022/03/27 02:51:45;;;;;;;18.60;8.02;;;;;;;;;;4811328;29;20460;-78
2022/03/27 02:54:12;;;;;;;15.18;6.97;;;;;;;;;;4826107;29;20367;-79
2022/03/27 02:56:38;;;;;;;20.65;7.97;;;;;;;;;;4811616;29;20494;-78
2022/03/27 02:59:04;;;;;;;21.83;7.65;;;;;;;;;;4810640;29;20046;-78
2022/03/27 03:01:31;;;;;;;18.00;7.50;;;;;;;;;;4826439;29;20050;-77
2022/03/27 03:03:57;;;;;;;19.40;7.50;;;;;;;;;;4811693;29;20064;-79
2022/03/27 03:06:24;;;;;;;16.98;7.20;;;;;;;;;;4810676;29;20049;-78
2022/03/27 03:08:51;;;;;;;16.55;6.88;;;;;;;;;;4826161;29;20093;-78
2022/03/27 03:11:17;;;;;;;23.77;8.40;;;;;;;;;;4810810;29;20170;-78
2022/03/27 03:13:45;;;;;;;20.02;8.13;;;;;;;;;;4811163;29;20483;-78
2022/03/27 03:16:12;;;;;;;14.00;7.32;;;;;;;;;;4825917;29;20057;-79
2022/03/27 03:18:39;;;;;;;22.65;8.38;;;;;;;;;;4825540;29;20054;-78
2022/03/27 03:21:05;;;;;;;20.50;7.63;;;;;;;;;;4810532;29;20121;-79
2022/03/27 03:23:32;;;;;;;17.58;6.95;;;;;;;;;;4826051;29;20050;-78
2022/03/27 03:25:58;;;;;;;17.45;8.27;;;;;;;;;;4810857;29;20149;-78
2022/03/27 03:28:25;;;;;;;19.20;7.60;;;;;;;;;;4810850;29;20056;-78
2022/03/27 03:30:51;;;;;;;16.08;7.85;;;;;;;;;;4825730;29;20350;-81
2022/03/27 03:33:17;;;;;;;20.83;8.05;;;;;;;;;;4810683;29;20493;-78
2022/03/27 03:35:43;;;;;;;16.30;7.50;;;;;;;;;;4826100;29;20053;-77
2022/03/27 03:38:09;;;;;;;16.33;6.85;;;;;;;;;;4810160;29;20061;-77
2022/03/27 03:40:35;;;;;;;21.52;7.97;;;;;;;;;;4811147;29;20058;-78
2022/03/27 03:43:02;;;;;;;14.70;7.88;;;;;;;;;;4843876;29;20122;-78
2022/03/27 03:45:28;;;;;;;15.95;8.23;;;;;;;;;;4828797;29;20478;-78
2022/03/27 03:47:54;;;;;;;18.98;8.18;;;;;;;;;;4829079;29;20440;-78
2022/03/27 03:50:21;;;;;;;18.58;7.88;;;;;;;;;;4827884;29;20045;-78
2022/03/27 03:52:47;;;;;;;18.88;7.50;;;;;;;;;;4843240;29;20099;-78
2022/03/27 03:55:13;;;;;;;20.52;7.50;;;;;;;;;;4843593;29;20053;-79
2022/03/27 03:57:39;;;;;;;17.77;6.50;;;;;;;;;;4828272;29;20068;-79
2022/03/27 04:00:06;;;;;;;16.33;6.78;;;;;;;;;;4842914;29;20049;-81
2022/03/27 04:02:33;;;;;;;18.58;8.43;;;;;;;;;;4842423;29;20120;-80
2022/03/27 04:05:01;;;;;;;19.38;8.02;;;;;;;;;;4828127;29;20148;-77
2022/03/27 04:07:27;;;;;;;19.98;7.68;;;;;;;;;;4827061;29;20052;-77
2022/03/27 04:09:53;;;;;;;20.02;7.65;;;;;;;;;;4842979;29;20154;-77
2022/03/27 04:12:19;;;;;;;20.80;7.10;;;;;;;;;;4827168;29;20619;-78
2022/03/27 04:14:45;;;;;;;16.75;7.20;;;;;;;;;;4827578;29;20497;-78
2022/03/27 04:17:11;;;;;;;24.52;8.10;;;;;;;;;;4827323;29;20435;-78
2022/03/27 04:19:37;;;;;;;18.73;7.30;;;;;;;;;;4842851;29;20049;-77
2022/03/27 04:22:04;;;;;;;17.73;7.53;;;;;;;;;;4842844;29;20053;-77
2022/03/27 04:24:30;;;;;;;16.98;7.45;;;;;;;;;;4827367;29;20088;-77
2022/03/27 04:26:56;;;;;;;20.58;8.18;;;;;;;;;;4828010;29;20053;-77
2022/03/27 04:29:22;;;;;;;13.18;6.05;;;;;;;;;;4827962;29;20045;-78
2022/03/27 04:31:49;;;;;;;22.92;7.30;;;;;;;;;;4827238;29;20184;-77
2022/03/27 04:34:15;;;;;;;19.13;6.82;;;;;;;;;;4842461;29;20053;-78
2022/03/27 04:36:41;;;;;;;22.52;8.60;;;;;;;;;;4827613;29;20056;-78
2022/03/27 04:39:07;;;;;;;19.30;6.47;;;;;;;;;;4827579;29;20049;-78
2022/03/27 04:41:34;;;;;;;28.30;7.72;;;;;;;;;;4826720;29;20486;-78
2022/03/27 04:44:00;;;;;;;27.33;7.75;;;;;;;;;;4826695;29;20057;-78
2022/03/27 04:46:26;;;;;;;28.25;8.52;;;;;;;;;;4828168;29;20094;-78
2022/03/27 04:48:53;;;;;;;28.42;8.52;;;;;;;;;;4842223;29;20053;-77
2022/03/27 04:51:19;;;;;;;20.90;6.80;;;;;;;;;;4827247;29;20057;-79
2022/03/27 04:53:45;;;;;;;20.15;6.10;;;;;;;;;;4826912;29;20529;-78
2022/03/27 04:56:11;;;;;;;28.30;7.32;;;;;;;;;;4827460;29;20486;-80
2022/03/27 04:58:37;;;;;;;33.92;8.02;;;;;;;;;;4842174;29;20051;-78
2022/03/27 05:01:03;;;;;;;24.92;8.30;;;;;;;;;;4827538;29;20060;-81
2022/03/27 05:03:30;;;;;;;34.67;9.13;;;;;;;;;;4826923;29;20057;-78
2022/03/27 05:05:56;;;;;;;32.17;8.63;;;;;;;;;;4842139;29;20045;-80
2022/03/27 05:08:22;;;;;;;16.05;6.72;;;;;;;;;;4827027;29;20460;-77
2022/03/27 05:10:48;;;;;;;29.92;11.15;;;;;;;;;;4827264;29;20046;-79
2022/03/27 05:13:14;;;;;;;28.52;8.25;;;;;;;;;;4826688;29;20046;-81
2022/03/27 05:15:40;;;;;;;26.13;8.93;;;;;;;;;;4827479;29;20053;-77
2022/03/27 05:18:06;;;;;;;24.02;8.45;;;;;;;;;;4827816;29;20481;-77
2022/03/27 05:20:32;;;;;;;21.85;8.10;;;;;;;;;;4826276;29;20049;-80
2022/03/27 05:23:02;;;;;;;21.50;8.68;;;;;;;;;;4827001;29;20054;-78
2022/03/27 05:25:28;;;;;;;26.67;8.63;;;;;;;;;;4826689;29;20125;-79
2022/03/27 05:27:57;;;;;;;23.25;8.07;;;;;;;;;;4842422;29;20144;-77
2022/03/27 05:30:25;;;;;;;19.83;6.47;;;;;;;;;;4842199;29;20065;-78
2022/03/27 05:32:53;;;;;;;16.08;6.57;;;;;;;;;;4841944;29;20062;-78
2022/03/27 05:35:20;;;;;;;21.88;7.22;;;;;;;;;;4826287;29;20230;-78
2022/03/27 05:37:47;;;;;;;17.42;6.90;;;;;;;;;;4841950;29;20095;-78
2022/03/27 05:40:14;;;;;;;16.92;6.53;;;;;;;;;;4841358;29;20453;-78
2022/03/27 05:42:40;;;;;;;19.83;6.00;;;;;;;;;;4841190;29;20072;-78
2022/03/27 05:45:07;;;;;;;16.70;6.05;;;;;;;;;;4827196;29;20210;-79
2022/03/27 05:47:34;;;;;;;17.55;5.90;;;;;;;;;;4826120;29;20053;-78
2022/03/27 05:50:00;;;;;;;16.50;6.13;;;;;;;;;;4841582;29;20473;-79
2022/03/27 05:52:26;;;;;;;22.15;6.05;;;;;;;;;;4840956;29;20442;-78
2022/03/27 05:54:53;;;;;;;20.02;5.47;;;;;;;;;;4841414;29;20055;-79
2022/03/27 05:57:19;;;;;;;18.52;5.30;;;;;;;;;;4841601;29;20102;-81
2022/03/27 05:59:48;;;;;;;23.58;5.60;;;;;;;;;;4826817;29;20053;-78
2022/03/27 06:02:15;;;;;;;17.05;4.82;;;;;;;;;;4826303;29;20057;-79
2022/03/27 06:04:41;;;;;;;13.13;4.45;;;;;;;;;;4841303;29;20085;-79
2022/03/27 06:07:08;;;;;;;13.02;4.43;;;;;;;;;;4841141;29;20064;-78
2022/03/27 06:09:34;;;;;;;21.13;5.15;;;;;;;;;;4826174;29;20053;-78
2022/03/27 06:12:00;;;;;;;19.15;4.90;;;;;;;;;;4826314;29;20053;-78
2022/03/27 06:14:27;;;;;;;20.20;4.50;;;;;;;;;;4825910;29;20498;-78
2022/03/27 06:16:53;;;;;;;19.88;5.68;;;;;;;;;;4827186;29;20148;-78
2022/03/27 06:19:19;;;;;;;24.50;5.10;;;;;;;;;;4840066;29;20053;-81
2022/03/27 06:21:45;;;;;;;22.85;5.43;;;;;;;;;;4825937;29;20053;-77
2022/03/27 06:24:12;;;;;;;27.98;5.20;;;;;;;;;;4827337;29;20108;-79
2022/03/27 06:26:38;;;;;;;43.58;7.00;;;;;;;;;;4829403;29;20049;-78
2022/03/27 06:29:05;;;;;;;28.77;5.40;;;;;;;;;;4844796;29;20469;-78
2022/03/27 06:31:31;;;;;;;26.10;6.47;;;;;;;;;;4843563;29;20045;-78
2022/03/27 06:33:57;;;;;;;31.02;5.47;;;;;;;;;;4829467;29;20058;-78
2022/03/27 06:36:23;;;;;;;32.50;5.85;;;;;;;;;;4830353;29;20057;-78
2022/03/27 06:38:49;;;;;;;32.75;5.55;;;;;;;;;;4830181;29;20045;-77
2022/03/27 06:41:16;;;;;;;33.05;6.03;;;;;;;;;;4829693;29;20533;-77
2022/03/27 06:43:42;;;;;;;32.15;5.78;;;;;;;;;;4844957;29;20591;-78
2022/03/27 06:46:13;;;;;;;32.58;6.03;;;;;;;;;;4830754;29;20050;-78
2022/03/27 06:48:39;;;;;;;;;;;;;;;;;;4830293;29;20061;-78
2022/03/27 06:51:05;;;;;;;;;;;;;;;;;;4829881;29;19935;-78
2022/03/27 06:53:31;;;;;;;;;;;;;;;;;;4826537;29;19963;-79
2022/03/27 06:55:57;;;;;;;;;;;;;;;;;;4845357;29;19924;-78
2022/03/27 06:58:23;;;;;;;;;;;;;;;;;;4830129;29;19993;-81
2022/03/27 07:03:33;;;;;;;;;;;;;;;;;;4844699;29;19980;-80
2022/03/27 07:05:59;;;;;;;;;;;;;;;;;;4830339;29;19928;-79
2022/03/27 07:08:25;;;;;;;;;;;;;;;;;;4844965;29;19935;-79
2022/03/27 07:10:51;;;;;;;;;;;;;;;;;;4830494;29;19924;-79
2022/03/27 07:13:17;;;;;;;;;;;;;;;;;;4845167;29;19931;-78
2022/03/27 07:15:44;;;;;;;37.95;6.72;;;;;;;;;;4828805;29;20488;-78
2022/03/27 07:18:11;;;;;;;36.40;8.63;;;;;;;;;;4828922;29;20614;-81
2022/03/27 07:20:41;;;;;;;38.95;6.65;;;;;;;;;;4828979;29;20524;-76
2022/03/27 07:23:09;;;;;;;48.80;7.88;;;;;;;;;;4828560;29;20064;-79
2022/03/27 07:25:36;;;;;;;38.60;8.15;;;;;;;;;;4842901;29;20053;-77
2022/03/27 07:28:03;;;;;;;39.10;7.85;;;;;;;;;;4843868;29;20053;-78
2022/03/27 07:30:30;;;;;;;34.88;7.35;;;;;;;;;;4829237;29;20053;-75
2022/03/27 07:32:57;;;;;;;37.05;7.30;;;;;;;;;;4829896;29;20064;-79
2022/03/27 07:35:24;;;;;;;39.92;7.15;;;;;;;;;;4843474;29;20494;-78
2022/03/27 07:37:51;;;;;;;46.30;8.98;;;;;;;;;;4828818;29;20057;-78
2022/03/27 07:40:18;;;;;;;33.97;7.22;;;;;;;;;;4828855;29;20053;-79
2022/03/27 07:42:50;;;;;;;40.72;7.38;;;;;;;;;;4810747;29;20061;-76
2022/03/27 07:45:21;;;;;;;38.85;7.90;;;;;;;;;;4810163;29;20516;-77
2022/03/27 07:47:48;;;;;;;44.25;7.82;;;;;;;;;;4809802;29;20128;-77
2022/03/27 07:50:14;;;;;;;;;;;;;;;;;;4811474;29;20051;-79
2022/03/27 07:52:40;;;;;;;;;;;;;;;;;;4811264;29;19939;-80
2022/03/27 07:55:06;;;;;;;;;;;;;;;;;;4811607;29;19979;-80
2022/03/27 07:57:31;;;;;;;;;;;;;;;;;;4810869;29;19924;-80
2022/03/27 07:59:57;;;;;;;;;;;;;;;;;;4811841;29;20273;-79
2022/03/27 08:02:23;;;;;;;;;;;;;;;;;;4811454;29;19928;-80
2022/03/27 08:04:49;;;;;;;;;;;;;;;;;;4826373;29;19995;-78
2022/03/27 08:07:15;;;;;;;;;;;;;;;;;;4826719;29;20292;-79
2022/03/27 08:09:41;;;;;;;;;;;;;;;;;;4826692;29;20044;-78
2022/03/27 08:12:08;;;;;;;;;;;;;;;;;;4811542;29;20365;-81
2022/03/27 08:14:34;;;;;;;;;;;;;;;;;;4811042;29;20378;-79
2022/03/27 08:17:01;;;;;;;;;;;;;;;;;;4825941;29;19928;-78
2022/03/27 08:19:27;;;;;;;;;;;;;;;;;;4826124;29;19929;-78
2022/03/27 08:21:53;;;;;;;;;;;;;;;;;;4810723;29;20404;-76
2022/03/27 08:24:19;;;;;;;;;;;;;;;;;;4826476;29;19924;-76
2022/03/27 08:27:00;;;;;;;;;;;;;;;;;;4826258;29;20018;-77
2022/03/27 08:29:26;;;;;;;;;;;;;;;;;;4825595;29;19935;-82
2022/03/27 08:31:52;;;;;;;;;;;;;;;;;;4810861;29;19925;-76
2022/03/27 08:34:18;;;;;;;;;;;;;;;;;;4810960;29;20292;-79
2022/03/27 08:36:44;;;;;;;;;;;;;;;;;;4810178;29;19924;-76
2022/03/27 08:39:10;;;;;;;;;;;;;;;;;;4810856;29;19980;-80
2022/03/27 08:41:37;;;;;;;;;;;;;;;;;;4812071;29;19925;-78
2022/03/27 08:44:03;;;;;;;;;;;;;;;;;;4813187;29;19924;-79
2022/03/27 08:46:29;;;;;;;;;;;;;;;;;;4829684;29;20014;-87
2022/03/27 08:48:55;;;;;;;;;;;;;;;;;;4828058;29;20031;-81
2022/03/27 08:51:21;;;;;;;;;;;;;;;;;;4826992;29;19924;-78
2022/03/27 08:53:47;;;;;;;;;;;;;;;;;;4810726;29;19981;-79
2022/03/27 08:56:13;;;;;;;;;;;;;;;;;;4810929;29;19924;-81
2022/03/27 08:58:39;;;;;;;;;;;;;;;;;;4811993;29;19941;-80
2022/03/27 09:01:05;;;;;;;;;;;;;;;;;;4811732;29;19957;-81
2022/03/27 09:03:31;;;;;;;;;;;;;;;;;;4827243;29;19928;-83
2022/03/27 09:05:59;;;;;;;;;;;;;;;;;;4811246;29;19931;-81
2022/03/27 09:08:25;;;;;;;;;;;;;;;;;;4811298;29;19928;-80
2022/03/27 09:10:51;;;;;;;;;;;;;;;;;;4813523;29;20380;-80
2022/03/27 09:13:17;;;;;;;;;;;;;;;;;;4829152;29;19928;-81
2022/03/27 09:15:43;;;;;;;;;;;;;;;;;;4828955;29;20031;-78
2022/03/27 09:18:09;;;;;;;;;;;;;;;;;;4812590;29;19924;-79
2022/03/27 09:20:35;;;;;;;;;;;;;;;;;;4810754;29;19928;-83
2022/03/27 09:23:01;;;;;;;;;;;;;;;;;;4810220;29;19924;-78
2022/03/27 09:25:28;;;;;;;;;;;;;;;;;;4808468;29;19970;-78
2022/03/27 09:27:58;;;;;;;35.00;7.97;;;;;;;;;;4823158;29;19931;-76
2022/03/27 09:30:34;;;;;;;37.20;9.13;;;;;;;;;;4822960;29;20502;-75
2022/03/27 09:33:00;;;;;;;34.38;8.90;;;;;;;;;;4805695;29;20441;-78
2022/03/27 09:35:26;;;;;;;34.60;8.60;;;;;;;;;;4806549;29;20436;-75
2022/03/27 09:37:52;;;;;;;39.17;9.90;;;;;;;;;;4807418;29;20830;-76
2022/03/27 09:40:19;;;;;;;31.98;8.57;;;;;;;;;;4807342;29;21195;-78
2022/03/27 09:42:47;;;;;;;38.22;9.15;;;;;;;;;;4806466;29;20439;-77
2022/03/27 09:45:20;;;;;;;34.25;9.02;;;;;;;;;;4808316;29;20431;-77
2022/03/27 09:47:48;;;;;;;37.60;8.68;;;;;;;;;;4807808;29;20432;-76
2022/03/27 09:50:53;;;;;;;32.47;8.40;;;;;;;;;;4808275;29;20440;-76
2022/03/27 09:53:29;;;;;;;33.63;7.85;;;;;;;;;;4768178;30;20859;-76
2022/03/27 09:55:58;;;;;;;38.35;9.40;;;;;;;;;;4767462;30;20476;-76
2022/03/27 09:58:41;;;;;;;36.83;8.52;;;;;;;;;;4798966;29;20937;-75
2022/03/27 10:01:27;;;;;;;36.33;8.60;;;;;;;;;;4811926;29;20492;-77
2022/03/27 10:03:58;;;;;;;38.33;7.97;;;;;;;;;;4811345;29;20431;-76
2022/03/27 10:06:29;;;;;;;30.73;7.90;;;;;;;;;;4812894;29;20058;-77
2022/03/27 10:08:55;;;;;;;35.78;7.78;;;;;;;;;;4827229;29;20501;-76
2022/03/27 10:11:22;;;;;;;31.45;6.68;;;;;;;;;;4813347;29;20076;-76
2022/03/27 10:13:52;;;;;;;33.95;6.88;;;;;;;;;;4812645;29;20056;-76
2022/03/27 10:16:19;;;;;;;27.48;6.03;;;;;;;;;;4828537;29;20128;-76
2022/03/27 10:18:46;;;;;;;35.65;6.95;;;;;;;;;;4812539;29;20478;-76
2022/03/27 10:21:15;;;;;;;30.52;6.72;;;;;;;;;;4812961;29;20050;-76
2022/03/27 10:23:43;;;;;;;26.25;6.57;;;;;;;;;;4813171;29;20058;-77
2022/03/27 10:26:10;;;;;;;30.50;6.65;;;;;;;;;;4807021;29;20057;-75
2022/03/27 10:28:37;;;;;;;30.75;6.07;;;;;;;;;;4823663;29;20042;-76
2022/03/27 10:31:04;;;;;;;33.78;7.10;;;;;;;;;;4812027;29;20046;-76
2022/03/27 10:33:30;;;;;;;32.80;7.18;;;;;;;;;;4812765;29;20053;-76
2022/03/27 10:36:10;;;;;;;27.52;6.07;;;;;;;;;;4826484;29;20180;-77
2022/03/27 10:38:48;;;;;;;24.92;6.07;;;;;;;;;;4812782;29;20050;-77
2022/03/27 10:41:17;;;;;;;30.65;5.97;;;;;;;;;;4812363;29;20057;-76
2022/03/27 10:43:43;;;;;;;28.58;5.72;;;;;;;;;;4812365;29;20057;-78
2022/03/27 10:46:16;;;;;;;30.65;5.88;;;;;;;;;;4825773;29;20053;-79
2022/03/27 10:48:43;;;;;;;31.27;6.80;;;;;;;;;;4824629;29;20197;-77
2022/03/27 10:51:10;;;;;;;24.98;5.53;;;;;;;;;;4811757;29;20049;-78
2022/03/27 10:53:36;;;;;;;29.27;6.43;;;;;;;;;;4812199;29;20068;-77
2022/03/27 10:56:06;;;;;;;30.23;6.15;;;;;;;;;;4826839;29;20042;-77
2022/03/27 10:58:32;;;;;;;31.85;6.95;;;;;;;;;;4812486;29;20106;-77
2022/03/27 11:01:00;;;;;;;34.05;6.78;;;;;;;;;;4826922;29;20050;-76
2022/03/27 11:03:45;;;;;;;27.95;5.97;;;;;;;;;;4811981;29;20106;-77
2022/03/27 11:06:31;;;;;;;31.02;7.22;;;;;;;;;;4811818;29;20110;-76
2022/03/27 11:08:59;;;;;;;26.52;5.78;;;;;;;;;;4811764;29;20054;-76
2022/03/27 11:11:34;;;;;;;20.70;4.63;;;;;;;;;;4811887;29;20054;-77
2022/03/27 11:14:01;;;;;;;31.08;5.97;;;;;;;;;;4826805;29;20050;-77
2022/03/27 11:16:27;;;;;;;22.73;4.88;;;;;;;;;;4812434;29;20088;-77
2022/03/27 11:18:53;;;;;;;22.45;5.30;;;;;;;;;;4811660;29;20562;-79
2022/03/27 11:21:22;;;;;;;25.83;4.78;;;;;;;;;;4812226;29;20050;-77
2022/03/27 11:23:49;;;;;;;20.77;4.60;;;;;;;;;;4826697;29;20448;-79
2022/03/27 11:26:21;;;;;;;17.42;4.07;;;;;;;;;;4811729;29;20096;-76
2022/03/27 11:28:51;;;;;;;16.50;4.03;;;;;;;;;;4827003;29;20118;-78
2022/03/27 11:31:19;;;;;;;27.73;5.47;;;;;;;;;;4811982;29;20096;-76
2022/03/27 11:34:08;;;;;;;18.83;4.55;;;;;;;;;;4811593;29;20062;-76
2022/03/27 11:36:35;;;;;;;24.25;5.45;;;;;;;;;;4811302;29;20045;-76
2022/03/27 11:39:09;;;;;;;22.30;4.28;;;;;;;;;;4826378;29;20085;-76
2022/03/27 11:41:43;;;;;;;19.90;4.15;;;;;;;;;;4826478;29;20077;-76
2022/03/27 11:44:18;;;;;;;18.48;3.58;;;;;;;;;;4811096;29;20054;-77
2022/03/27 11:46:55;;;;;;;17.42;5.18;;;;;;;;;;4811799;29;20098;-76
2022/03/27 11:49:22;;;;;;;15.50;3.30;;;;;;;;;;4811548;29;20061;-77
2022/03/27 11:52:03;;;;;;;14.82;3.72;;;;;;;;;;4826451;29;20058;-76
2022/03/27 11:54:29;;;;;;;18.35;4.45;;;;;;;;;;4811517;29;20489;-76
2022/03/27 11:56:56;;;;;;;19.77;3.92;;;;;;;;;;4825896;29;20061;-76
2022/03/27 11:59:26;;;;;;;13.90;3.10;;;;;;;;;;4826514;29;20050;-77
2022/03/27 12:01:56;;;;;;;15.20;4.00;;;;;;;;;;4810900;29;20045;-79
2022/03/27 12:04:22;;;;;;;11.95;3.10;;;;;;;;;;4811085;29;20050;-76
2022/03/27 12:06:54;;;;;;;16.15;3.63;;;;;;;;;;4811002;29;20053;-75
2022/03/27 12:09:25;;;;;;;17.75;3.75;;;;;;;;;;4826478;29;20060;-76
2022/03/27 12:12:04;;;;;;;18.15;3.97;;;;;;;;;;4810302;29;20066;-78
2022/03/27 12:14:30;;;;;;;20.30;3.60;;;;;;;;;;4810450;29;20073;-75
2022/03/27 12:16:56;;;;;;;18.60;3.90;;;;;;;;;;4810361;29;20054;-77
2022/03/27 12:19:22;;;;;;;21.40;4.13;;;;;;;;;;4825414;29;20084;-77
2022/03/27 12:21:48;;;;;;;13.18;3.47;;;;;;;;;;4809378;29;20121;-77
2022/03/27 12:24:16;;;;;;;16.05;4.45;;;;;;;;;;4809850;29;20172;-77
2022/03/27 12:29:40;;;;;;;12.95;3.05;;;;;;;;;;4812109;29;20498;-77
2022/03/27 12:32:26;;;;;;;13.20;2.72;;;;;;;;;;4809171;29;20152;-76
2022/03/27 12:34:53;;;;;;;14.40;3.42;;;;;;;;;;4825163;29;20050;-75
2022/03/27 12:37:26;;;;;;;9.50;2.63;;;;;;;;;;4809892;29;20054;-78
2022/03/27 12:39:53;;;;;;;16.08;3.42;;;;;;;;;;4809270;29;20078;-76
2022/03/27 12:42:48;;;;;;;11.57;2.70;;;;;;;;;;4824230;29;20200;-77
2022/03/27 12:45:17;;;;;;;15.20;3.05;;;;;;;;;;4817228;29;20065;-75
2022/03/27 12:47:44;;;;;;;11.68;2.90;;;;;;;;;;4810422;29;20085;-76
2022/03/27 12:50:12;;;;;;;18.63;4.38;;;;;;;;;;4809646;29;20538;-76
2022/03/27 12:52:45;;;;;;;16.55;3.30;;;;;;;;;;4825230;29;20113;-77
2022/03/27 12:55:12;;;;;;;14.18;2.78;;;;;;;;;;4809562;29;20046;-76
2022/03/27 12:57:52;;;;;;;18.05;3.10;;;;;;;;;;4809816;29;20049;-76
2022/03/27 13:00:19;;;;;;;17.58;3.13;;;;;;;;;;4824467;29;20474;-76
2022/03/27 13:02:45;;;;;;;14.18;3.22;;;;;;;;;;4810372;29;20511;-74
2022/03/27 13:05:11;;;;;;;15.48;3.35;;;;;;;;;;4809407;29;20042;-76
2022/03/27 13:07:53;;;;;;;20.67;3.58;;;;;;;;;;4809912;29;20045;-76
2022/03/27 13:10:21;;;;;;;18.42;3.45;;;;;;;;;;4809344;29;20099;-76
2022/03/27 13:12:56;;;;;;;19.35;4.75;;;;;;;;;;4809884;29;20430;-77
2022/03/27 13:15:35;;;;;;;17.48;3.95;;;;;;;;;;4823957;29;20065;-78
2022/03/27 13:18:18;;;;;;;19.45;3.92;;;;;;;;;;4810220;29;20057;-76
2022/03/27 13:20:44;;;;;;;23.27;5.10;;;;;;;;;;4810448;29;20093;-79
2022/03/27 13:23:11;;;;;;;23.63;4.20;;;;;;;;;;4807868;29;20518;-78
2022/03/27 13:25:37;;;;;;;23.27;4.70;;;;;;;;;;4807494;29;20057;-77
2022/03/27 13:28:04;;;;;;;21.50;5.75;;;;;;;;;;4809834;29;20049;-78
2022/03/27 13:30:30;;;;;;;20.05;4.53;;;;;;;;;;4824996;29;20049;-77
2022/03/27 13:33:00;;;;;;;25.20;5.75;;;;;;;;;;4824804;29;20136;-77
2022/03/27 13:35:27;;;;;;;24.50;5.35;;;;;;;;;;4823609;29;20057;-78
2022/03/27 13:37:54;;;;;;;26.15;5.13;;;;;;;;;;4809150;29;20113;-77
2022/03/27 13:40:21;;;;;;;20.38;4.10;;;;;;;;;;4809428;29;20244;-78
2022/03/27 13:43:00;;;;;;;26.98;5.13;;;;;;;;;;4824070;29;20057;-77
2022/03/27 13:45:27;;;;;;;24.52;5.13;;;;;;;;;;4825247;29;20069;-77
2022/03/27 13:47:53;;;;;;;29.60;5.70;;;;;;;;;;4825342;29;20049;-77
2022/03/27 13:50:19;;;;;;;26.40;5.68;;;;;;;;;;4809420;29;20089;-78
2022/03/27 13:52:46;;;;;;;23.88;5.47;;;;;;;;;;4809839;29;20108;-77
2022/03/27 13:55:12;;;;;;;23.52;5.32;;;;;;;;;;4809204;29;20072;-78
2022/03/27 13:57:38;;;;;;;29.20;5.82;;;;;;;;;;4809761;29;20050;-77
2022/03/27 14:00:04;;;;;;;27.23;5.65;;;;;;;;;;4808923;29;20068;-78
2022/03/27 14:02:30;;;;;;;25.08;4.85;;;;;;;;;;4809656;29;20057;-76
2022/03/27 14:04:57;;;;;;;21.05;5.15;;;;;;;;;;4824701;29;20116;-76
2022/03/27 14:07:26;;;;;;;26.73;5.10;;;;;;;;;;4809055;29;20626;-76
2022/03/27 14:09:52;;;;;;;23.88;5.55;;;;;;;;;;4824944;29;20073;-76
2022/03/27 14:12:18;;;;;;;24.02;6.15;;;;;;;;;;4824348;29;20478;-77
2022/03/27 14:14:44;;;;;;;27.38;6.10;;;;;;;;;;4810033;29;20410;-75
2022/03/27 14:17:10;;;;;;;27.35;6.20;;;;;;;;;;4809190;29;20368;-76
2022/03/27 14:19:38;;;;;;;25.95;5.32;;;;;;;;;;4824405;29;20046;-76
2022/03/27 14:22:04;;;;;;;26.70;5.57;;;;;;;;;;4824721;29;20085;-78
2022/03/27 14:24:31;;;;;;;31.75;6.55;;;;;;;;;;4824773;29;20122;-75
2022/03/27 14:26:57;;;;;;;28.30;4.43;;;;;;;;;;4824757;29;20054;-75
2022/03/27 14:29:23;;;;;;;29.70;6.32;;;;;;;;;;4809175;29;20110;-76
2022/03/27 14:31:52;;;;;;;29.80;6.72;;;;;;;;;;4824788;29;20054;-76
2022/03/27 14:34:19;;;;;;;25.13;5.50;;;;;;;;;;4809009;29;20106;-75
2022/03/27 14:36:46;;;;;;;21.33;4.55;;;;;;;;;;4809489;29;20065;-76
2022/03/27 14:39:12;;;;;;;31.65;5.60;;;;;;;;;;4824044;29;20077;-76
2022/03/27 14:41:38;;;;;;;24.55;5.55;;;;;;;;;;4809473;29;20130;-76
2022/03/27 14:44:05;;;;;;;24.02;4.60;;;;;;;;;;4808331;29;20050;-75
2022/03/27 14:46:32;;;;;;;27.05;6.22;;;;;;;;;;4826563;29;20371;-76
2022/03/27 14:48:58;;;;;;;30.35;5.10;;;;;;;;;;4827572;29;20050;-75
2022/03/27 14:51:24;;;;;;;29.48;5.60;;;;;;;;;;4812721;29;20050;-76
2022/03/27 14:56:35;;;;;;;27.80;5.05;;;;;;;;;;4826469;29;20058;-79
2022/03/27 14:59:01;;;;;;;21.27;4.50;;;;;;;;;;4812835;29;20046;-76
2022/03/27 15:01:27;;;;;;;24.02;4.25;;;;;;;;;;4827233;29;20513;-75